Latest Weather Observations for Gabo Island

IDV60801

Issued at 9:02 pm EDT Monday 5 December 2016 (issued every 30 minutes, with the page automatically refreshed every 10 minutes)

About weather observations | Map of weather stations | Latest weather observations for VIC | Other Formats
Station Details ID: 084016 Name: GABO ISLAND LIGHTHOUSE Lat: -37.57 Lon: 149.92 Height: 15.2 m
Data from the previous 72 hours. | See also: Recent months at Gabo Island
Date/Time
EDT
Temp
°C
App
Temp
°C
Dew
Point
°C
Rel
Hum
%
Delta-T
°C
Wind Press
QNH
hPa
Press
MSL
hPa
Rain since
9am
mm
Dir  Spd
km/h
Gust
km/h
Spd
kts
Gust
kts
05/09:00pm 16.7 11.4 12.5 76 2.3 WSW 32 35 17 19 1013.7 1013.7 0.0
05/08:30pm 16.8 11.9 12.5 76 2.4 SW 30 35 16 19 1013.8 - 0.0
05/08:00pm 16.8 11.1 11.9 73 2.7 SW 33 39 18 21 1013.3 - 0.0
05/07:30pm 16.4 10.9 12.4 77 2.2 SW 33 43 18 23 1013.4 - 0.0
05/07:00pm 16.7 10.5 12.5 76 2.3 SW 37 46 20 25 1013.2 - 0.0
05/06:30pm 17.2 11.2 12.1 72 2.8 SW 35 41 19 22 1012.7 - 0.0
05/06:00pm 17.3 11.7 12.0 71 2.9 SW 33 39 18 21 1012.2 1012.0 0.0
05/05:30pm 17.3 11.1 12.6 74 2.6 SW 37 46 20 25 1012.2 - 0.0
05/05:00pm 17.3 10.6 12.2 72 2.8 SW 39 46 21 25 1011.5 - 0.0
05/04:30pm 17.9 11.3 12.5 70 3.0 SW 39 46 21 25 1011.4 - 0.0
05/04:00pm 17.9 10.6 12.9 72 2.8 SW 43 48 23 26 1011.4 - 0.0
05/03:30pm 18.1 11.4 13.3 73 2.7 SW 41 50 22 27 1011.2 - 0.0
05/03:00pm 18.8 12.1 14.5 76 2.5 SW 43 48 23 26 1010.6 1010.6 0.0
05/02:30pm 18.4 10.2 14.0 75 2.5 SW 50 57 27 31 1010.2 - 0.0
05/02:00pm 18.5 10.0 14.3 76 2.4 SSW 52 59 28 32 1010.1 - 0.0
05/01:30pm 18.6 11.0 14.6 77 2.3 SW 48 61 26 33 1009.9 - 0.0
05/01:00pm 19.4 11.9 15.0 75 2.6 SW 48 57 26 31 1009.8 - 0.0
05/12:30pm 19.6 13.1 15.2 76 2.6 SW 43 54 23 29 1009.7 - 0.0
05/12:00pm 20.2 14.3 15.8 76 2.6 SW 41 52 22 28 1009.5 1009.5 0.0
05/11:30am 20.7 14.7 16.8 78 2.4 SW 44 50 24 27 1009.0 - 0.0
05/11:19am 20.7 13.9 16.8 78 2.4 SW 48 67 26 36 1008.8 - 0.0
05/11:10am 21.9 13.9 17.7 77 2.6 SW 56 67 30 36 1008.0 - 0.0
05/11:05am 23.0 21.0 19.1 78 2.5 W 28 52 15 28 1008.2 - 0.0
05/11:00am 21.9 22.5 19.4 86 1.6 NE 15 20 8 11 1007.7 - 0.0
05/10:30am 21.8 22.2 19.1 84 1.7 NNE 15 20 8 11 1006.9 - 0.0
05/10:00am 21.9 23.1 19.1 84 1.8 NE 11 15 6 8 1006.9 - 0.0
05/09:30am 21.8 21.0 19.3 86 1.6 NNE 22 26 12 14 1007.0 - 0.0
05/09:00am 21.7 21.2 20.0 90 1.1 NNE 22 26 12 14 1007.1 1007.1 2.6
05/08:30am 21.3 19.3 19.9 92 0.9 NNE 30 35 16 19 1006.7 - 2.6
05/08:00am 20.9 17.8 19.6 92 0.8 NNE 35 43 19 23 1006.4 - 2.6
05/07:30am 21.0 17.4 20.1 95 0.6 NNE 39 46 21 25 1006.2 - 2.6
05/07:00am 20.7 16.0 19.9 95 0.5 NNE 44 56 24 30 1005.9 - 2.6
05/06:30am 20.7 16.0 19.9 95 0.5 NNE 44 54 24 29 1005.8 - 2.6
05/06:00am 20.1 17.5 19.6 97 0.3 NE 32 46 17 25 1005.8 1005.9 2.6
05/05:30am 19.9 20.6 19.6 98 0.2 NNE 15 24 8 13 1007.1 - 2.6
05/05:00am 19.8 17.2 19.6 99 0.1 NNE 32 43 17 23 1006.7 - 2.6
05/04:30am 20.2 18.2 20.0 99 0.1 NNE 30 39 16 21 1006.8 - 2.6
05/04:00am 20.3 16.8 20.3 100 0.0 N 39 52 21 28 1006.8 - 2.6
05/03:30am 19.7 17.2 19.7 100 0.0 NNE 32 37 17 20 1006.9 - 2.6
05/03:00am 20.3 18.1 20.3 100 0.0 NNE 32 41 17 22 1007.6 1007.6 2.0
05/02:30am 20.1 18.2 20.1 100 0.0 NNE 30 39 16 21 1008.0 - 1.6
05/02:00am 20.3 17.4 20.1 99 0.1 N 35 43 19 23 1008.4 - 1.2
05/01:30am 20.2 17.6 20.0 99 0.1 N 33 43 18 23 1008.2 - 1.0
05/01:00am 19.6 17.0 19.6 100 0.0 NNE 32 39 17 21 1008.2 - 1.0
05/12:30am 19.4 17.5 19.4 100 0.0 NNE 28 32 15 17 1009.2 - 0.8
05/12:00am 19.7 18.2 19.4 98 0.2 NNE 26 33 14 18 1009.2 1009.2 0.6
 
Date/Time
EDT
Temp
°C
App
Temp
°C
Dew
Point
°C
Rel
Hum
%
Delta-T
°C
Wind Press
QNH
hPa
Press
MSL
hPa
Rain since
9am
mm
Dir  Spd
km/h
Gust
km/h
Spd
kts
Gust
kts
04/11:30pm 19.6 17.5 19.0 96 0.4 NNE 28 35 15 19 1009.4 - 0.2
04/11:00pm 20.3 17.5 19.4 95 0.6 N 33 43 18 23 1009.9 - 0.0
04/10:30pm 20.4 18.4 19.1 92 0.8 N 28 37 15 20 1010.4 - 0.0
04/10:00pm 20.6 17.5 18.8 89 1.1 N 33 46 18 25 1010.3 - 0.0
04/09:32pm 20.8 16.1 18.6 87 1.4 NNE 41 59 22 32 1009.3 - 0.0
04/09:30pm 20.7 16.4 18.6 88 1.3 NNE 39 54 21 29 1009.4 - 0.0
04/09:00pm 20.7 14.6 18.5 87 1.4 NNE 48 59 26 32 1009.0 1008.8 0.0
04/08:30pm 20.6 14.0 18.2 86 1.5 NNE 50 61 27 33 1008.4 - 0.0
04/08:00pm 20.5 13.6 18.3 87 1.4 NNE 52 61 28 33 1008.5 - 0.0
04/07:30pm 20.4 13.8 18.1 87 1.4 NNE 50 61 27 33 1008.6 - 0.0
04/07:00pm 20.8 14.5 18.1 84 1.7 NNE 48 59 26 32 1008.9 - 0.0
04/06:30pm 20.9 14.6 18.0 83 1.8 NNE 48 56 26 30 1009.2 - 0.0
04/06:00pm 21.3 14.9 17.9 81 2.1 NNE 48 57 26 31 1009.2 1009.1 0.0
04/05:30pm 21.3 14.5 17.7 80 2.2 NNE 50 61 27 33 1009.3 - 0.0
04/05:00pm 21.9 14.7 17.7 77 2.6 NNE 52 65 28 35 1009.3 - 0.0
04/04:30pm 21.8 14.2 17.6 77 2.6 NNE 54 65 29 35 1009.7 - 0.0
04/04:00pm 21.7 14.0 17.5 77 2.6 NNE 54 65 29 35 1009.7 - 0.0
04/03:30pm 21.8 14.6 17.6 77 2.6 NNE 52 61 28 33 1010.1 - 0.0
04/03:00pm 22.4 14.8 17.7 75 2.9 NNE 54 69 29 37 1010.2 1010.2 0.0
04/02:30pm 22.1 14.8 17.4 74 2.9 NNE 52 61 28 33 1010.5 - 0.0
04/02:00pm 22.4 15.5 17.4 73 3.1 NNE 50 57 27 31 1010.8 - 0.0
04/01:30pm 22.6 16.5 16.7 69 3.6 NNE 44 56 24 30 1011.2 - 0.0
04/01:00pm 22.2 16.8 17.0 72 3.2 NNE 41 46 22 25 1011.6 - 0.0
04/12:30pm 21.7 16.4 16.4 72 3.2 NNE 39 46 21 25 1012.0 - 0.0
04/12:00pm 21.3 15.6 16.3 73 3.0 NNE 41 46 22 25 1012.1 1012.2 0.0
04/11:30am 21.7 16.6 16.8 73 3.0 NNE 39 46 21 25 1012.3 - 0.0
04/11:00am 21.9 17.1 16.5 71 3.3 NNE 37 43 20 23 1012.8 - 0.0
04/10:30am 21.4 16.9 16.3 72 3.1 NNE 35 43 19 23 1013.1 - 0.0
04/10:00am 21.0 15.5 15.8 72 3.1 NNE 39 46 21 25 1013.1 - 0.0
04/09:30am 20.4 15.9 16.4 78 2.4 NE 35 41 19 22 1013.6 - 0.0
04/09:00am 20.6 16.3 15.9 74 2.8 NE 33 41 18 22 1013.6 1013.6 0.0
04/08:30am 20.1 15.9 15.7 76 2.6 NNE 32 35 17 19 1014.0 - 0.0
04/08:00am 20.2 17.5 15.7 75 2.7 NNE 24 33 13 18 1014.2 - 0.0
04/07:30am 19.5 18.3 16.0 80 2.1 NNE 17 20 9 11 1014.9 - 0.0
04/07:00am 18.2 18.3 16.4 89 1.1 NNE 11 17 6 9 1014.8 - 0.0
04/06:30am 17.3 17.4 16.5 95 0.5 NNE 11 15 6 8 1014.7 - 0.0
04/06:00am 16.8 15.4 15.6 93 0.7 NNE 17 19 9 10 1014.4 1014.4 0.0
04/05:30am 16.8 15.2 16.0 95 0.5 NNE 19 22 10 12 1014.3 - 0.0
04/05:00am 16.6 14.6 15.6 94 0.6 NE 20 24 11 13 1014.3 - 0.0
04/04:30am 16.3 16.2 16.0 98 0.2 NNE 11 13 6 7 1014.6 - 0.0
04/04:00am 15.9 16.3 15.2 96 0.4 NNE 7 11 4 6 1014.7 - 0.0
04/03:30am 16.0 16.6 15.3 96 0.4 NNE 6 7 3 4 1014.9 - 0.0
04/03:00am 16.4 16.8 15.4 94 0.6 NE 7 9 4 5 1015.0 1015.0 0.0
04/02:30am 16.2 16.4 14.8 91 0.8 NNE 7 9 4 5 1015.4 - 0.0
04/02:00am 17.0 17.5 14.9 87 1.2 NE 6 7 3 4 1015.9 - 0.0
04/01:30am 17.3 17.3 14.3 82 1.7 N 7 9 4 5 1016.0 - 0.0
04/01:00am 17.1 17.1 14.3 83 1.6 N 7 7 4 4 1016.4 - 0.0
04/12:30am 17.1 17.1 14.1 82 1.7 N 7 9 4 5 1016.6 - 0.0
04/12:00am 17.7 17.2 13.8 78 2.2 NNE 9 13 5 7 1016.5 1016.5 0.0
 
Date/Time
EDT
Temp
°C
App
Temp
°C
Dew
Point
°C
Rel
Hum
%
Delta-T
°C
Wind Press
QNH
hPa
Press
MSL
hPa
Rain since
9am
mm
Dir  Spd
km/h
Gust
km/h
Spd
kts
Gust
kts
03/11:30pm 17.5 16.7 14.0 80 2.0 E 11 17 6 9 1016.8 - 0.0
03/11:00pm 17.4 16.4 13.5 78 2.2 E 11 13 6 7 1016.9 - 0.0
03/10:30pm 17.4 16.0 13.3 77 2.3 E 13 17 7 9 1017.1 - 0.0
03/10:00pm 17.4 15.0 12.7 74 2.6 E 17 19 9 10 1017.0 - 0.0
03/09:30pm 17.3 15.1 12.2 72 2.8 E 15 19 8 10 1017.0 - 0.0
03/09:00pm 17.2 15.1 11.3 68 3.2 E 13 15 7 8 1016.9 1016.9 0.0
03/08:30pm 17.1 14.8 11.6 70 3.0 E 15 19 8 10 1016.6 - 0.0
03/08:00pm 17.2 14.8 11.3 68 3.2 E 15 17 8 9 1016.7 - 0.0
03/07:30pm 17.2 15.3 11.7 70 3.0 E 13 15 7 8 1016.6 - 0.0
03/07:00pm 17.3 15.0 11.6 69 3.1 E 15 17 8 9 1016.4 - 0.0
03/06:30pm 17.4 15.4 11.5 68 3.2 E 13 17 7 9 1016.1 - 0.0
03/06:00pm 17.4 15.0 11.3 67 3.3 E 15 19 8 10 1015.8 - 0.0
03/05:30pm 17.6 15.2 11.3 66 3.4 E 15 20 8 11 1015.7 - 0.0
03/05:00pm 17.6 14.8 11.3 66 3.4 E 17 20 9 11 1015.8 - 0.0
03/04:30pm 17.8 14.9 11.1 65 3.6 E 17 20 9 11 1015.8 - 0.0
03/04:00pm 17.8 15.6 10.7 63 3.8 E 13 17 7 9 1016.0 - 0.0
03/03:30pm 17.8 14.8 10.5 62 3.9 E 17 20 9 11 1016.1 - 0.0
03/03:00pm 17.8 14.4 10.5 62 3.9 E 19 20 10 11 1016.2 - 0.0
03/02:30pm 18.0 14.6 10.5 61 4.0 E 19 22 10 12 1016.3 - 0.0
03/02:00pm 18.3 15.2 10.2 59 4.3 E 17 20 9 11 1016.2 - 0.0
03/01:30pm 18.1 15.4 10.2 60 4.2 E 15 20 8 11 1016.4 - 0.0
03/01:00pm 18.2 15.8 9.9 58 4.4 E 13 17 7 9 1016.7 - 0.0
03/12:30pm 18.5 16.5 10.0 57 4.5 E 11 17 6 9 1016.7 - 0.0
03/12:00pm 18.0 16.2 9.6 58 4.4 E 9 13 5 7 1016.7 1016.6 0.0
03/11:30am 18.4 16.7 9.7 57 4.6 E 9 13 5 7 1016.7 - 0.0
03/11:00am 18.2 16.4 9.4 56 4.6 ESE 9 13 5 7 1016.8 - 0.0
03/10:30am 18.0 16.7 9.9 59 4.3 SE 7 11 4 6 1017.1 - 0.0
03/10:00am 17.2 15.3 9.1 59 4.2 S 9 11 5 6 1017.1 - 0.0
03/09:30am 17.1 15.6 9.2 59 4.1 S 7 9 4 5 1017.2 - 0.0
03/09:00am 16.8 14.8 8.8 59 4.1 SSW 9 11 5 6 1017.1 1017.1 0.0
03/08:30am 16.5 13.6 8.2 58 4.2 S 13 15 7 8 1017.0 - 0.0
03/08:00am 16.2 12.6 8.3 59 4.0 SSW 17 20 9 11 1016.8 - 0.0
03/07:30am 16.1 12.5 8.4 60 3.9 SSW 17 22 9 12 1016.6 - 0.0
03/07:00am 15.9 11.8 7.9 59 4.0 SSW 19 24 10 13 1016.3 - 0.0
03/06:30am 15.7 11.9 9.1 65 3.4 SSW 19 20 10 11 1015.9 - 0.0
03/06:00am 15.7 12.0 9.3 65 3.3 SW 19 22 10 12 1015.7 1015.6 0.0
03/05:30am 15.7 11.8 9.3 65 3.3 SW 20 24 11 13 1015.3 - 0.0
03/05:00am 15.7 12.3 11.2 74 2.4 SW 20 24 11 13 1015.0 - 0.0
03/04:30am 15.8 12.2 11.7 76 2.2 SW 22 26 12 14 1015.0 - 0.0
03/04:00am 15.8 12.3 12.1 78 2.0 SW 22 26 12 14 1015.1 - 0.0
03/03:30am 16.0 12.3 11.6 75 2.4 SW 22 28 12 15 1015.1 - 0.0
03/03:00am 16.1 12.1 11.9 76 2.3 SW 24 28 13 15 1015.2 1015.2 0.0
03/02:30am 16.2 12.6 11.8 75 2.4 SW 22 26 12 14 1015.4 - 0.0
03/02:00am 16.2 12.2 11.8 75 2.4 SW 24 30 13 16 1015.6 - 0.0
03/01:30am 16.3 12.5 12.5 78 2.1 SW 24 28 13 15 1015.7 - 0.0
03/01:00am 16.4 12.7 12.6 78 2.1 SW 24 30 13 16 1015.8 - 0.0
03/12:30am 16.4 13.5 13.0 80 1.9 WSW 20 26 11 14 1015.9 - 0.0
03/12:00am 16.3 13.4 12.9 80 1.9 WSW 20 26 11 14 1015.9 1015.9 0.0
 
Date/Time
EDT
Temp
°C
App
Temp
°C
Dew
Point
°C
Rel
Hum
%
Delta-T
°C
Wind Press
QNH
hPa
Press
MSL
hPa
Rain since
9am
mm
Dir  Spd
km/h
Gust
km/h
Spd
kts
Gust
kts
02/11:30pm 16.4 13.5 13.0 80 1.9 WSW 20 26 11 14 1015.6 - 0.0
02/11:00pm 16.6 13.0 13.2 80 1.9 WSW 24 32 13 17 1015.6 - 0.0
02/10:30pm 16.7 12.2 12.7 77 2.2 SW 28 32 15 17 1015.3 - 0.0
02/10:00pm 16.8 12.6 12.4 75 2.4 SW 26 32 14 17 1015.6 - 0.0
02/09:30pm 16.8 12.8 13.0 78 2.1 SW 26 32 14 17 1015.3 - 0.0

Other Formats:

Comma delimited format used in spreadsheet applications
http://www.bom.gov.au/fwo/IDV60801/IDV60801.94933.axf

JavaScript Object Notation format (JSON) in row-major order
http://www.bom.gov.au/fwo/IDV60801/IDV60801.94933.json